Time;durP1;ratioP1;P1;durP2;ratioP2;P2;SDS_P1;SDS_P2;PMS_P1;PMS_P2;Temp;Humidity;BMP_temperature;BMP_pressure;BME280_temperature;BME280_humidity;BME280_pressure;Samples;Min_cycle;Max_cycle;Signal;HPM_P1;HPM_P2
2024/01/24 00:02:07;;;;;;;;;;;8.00;99.90;;;7.40;100.00;98680.50;5006855;28;1309;-72
2024/01/24 00:04:34;;;;;;;;;;;8.10;99.90;;;7.43;100.00;98646.84;5008001;28;1926;-71
2024/01/24 00:07:01;;;;;;;;;;;8.10;99.90;;;7.38;100.00;98631.41;5037324;28;1510;-73
2024/01/24 00:09:30;;;;;;;;;;;8.10;99.90;;;7.38;100.00;98620.25;5005756;28;1321;-71
2024/01/24 00:11:58;;;;;;;;;;;8.10;99.90;;;7.46;100.00;98678.69;5035030;28;1396;-72
2024/01/24 00:14:28;;;;;;;;;;;8.10;99.90;;;7.47;100.00;98666.63;5005190;28;1623;-72
2024/01/24 00:16:55;;;;;;;;;;;8.10;99.90;;;7.46;100.00;98670.09;5021466;28;1512;-71
2024/01/24 00:19:21;;;;;;;;;;;8.10;99.90;;;7.39;100.00;98558.25;5006834;28;1417;-72
2024/01/24 00:21:49;;;;;;;;;;;8.20;99.90;;;7.41;100.00;98628.81;5006017;28;2019;-71
2024/01/24 00:24:16;;;;;;;;;;;8.10;99.90;;;7.42;100.00;98646.00;5004727;28;1902;-72
2024/01/24 00:26:43;;;;;;;;;;;8.10;99.90;;;7.40;100.00;98634.84;5004719;28;1449;-71
2024/01/24 00:29:09;;;;;;;;;;;8.10;99.90;;;7.40;100.00;98629.69;5021524;28;1508;-72
2024/01/24 00:31:36;;;;;;;;;;;8.10;99.90;;;7.36;100.00;98619.41;5006009;28;1310;-70
2024/01/24 00:34:03;;;;;;;;;;;8.10;99.90;;;7.39;100.00;98632.25;5020611;28;1447;-71
2024/01/24 00:36:30;;;;;;;;;;;8.10;99.90;;;7.37;100.00;98619.41;5005166;28;1862;-71
2024/01/24 00:38:57;;;;;;;;;;;8.10;99.90;;;7.37;100.00;98621.09;5006153;28;1364;-72
2024/01/24 00:41:24;;;;;;;;;;;8.10;99.90;;;7.36;100.00;98585.81;5019516;28;1299;-72
2024/01/24 00:43:50;;;;;;;;;;;8.10;99.90;;;-146.41;100.00;57768.22;5002865;28;2001;-72
2024/01/24 00:46:17;;;;;;;;;;;8.10;99.90;;;-146.41;100.00;57768.22;5005686;28;1286;-72
2024/01/24 00:48:45;;;;;;;;;;;8.20;99.90;;;7.46;100.00;98627.03;5006434;28;1302;-72
2024/01/24 00:51:12;;;;;;;;;;;8.20;99.90;;;7.45;100.00;98602.03;5036735;28;1333;-71
2024/01/24 00:53:40;;;;;;;;;;;8.20;99.90;;;7.45;100.00;98602.03;5020639;28;1511;-72
2024/01/24 00:56:07;;;;;;;;;;;8.20;99.90;;;-146.41;100.00;57768.22;5005937;28;1325;-70
2024/01/24 00:58:34;;;;;;;;;;;8.20;99.90;;;-146.41;100.00;57768.22;5003969;28;1412;-72
2024/01/24 01:01:01;;;;;;;;;;;8.20;99.90;;;-146.41;100.00;57768.22;5003618;28;1457;-72
2024/01/24 01:03:28;;;;;;;;;;;8.20;99.90;;;-146.41;100.00;57768.22;5003669;28;1906;-71
2024/01/24 01:05:55;;;;;;;;;;;8.30;99.90;;;-146.41;100.00;57768.22;5005264;28;1721;-71
2024/01/24 01:08:22;;;;;;;;;;;8.20;99.90;;;-146.41;100.00;57768.22;5020350;28;1321;-71
2024/01/24 01:10:48;;;;;;;;;;;8.20;99.90;;;-146.41;100.00;57768.22;5004607;28;1384;-72
2024/01/24 01:13:15;;;;;;;;;;;8.30;99.90;;;-146.41;100.00;57768.22;5005694;28;1409;-71
2024/01/24 01:15:42;;;;;;;;;;;8.30;99.90;;;-146.41;100.00;57768.22;5003791;28;1666;-71
2024/01/24 01:18:09;;;;;;;;;;;8.40;99.90;;;-146.41;100.00;57768.22;5005938;28;1336;-71
2024/01/24 01:20:36;;;;;;;;;;;8.30;99.90;;;-146.41;100.00;57768.22;5020623;28;1340;-71
2024/01/24 01:23:03;;;;;;;;;;;8.30;99.90;;;-146.41;100.00;57768.22;5003844;28;1906;-71
2024/01/24 01:25:30;;;;;;;;;;;8.30;99.90;;;-146.41;100.00;57768.22;5020060;28;1623;-72
2024/01/24 01:27:57;;;;;;;;;;;8.30;99.90;;;-146.41;100.00;57768.22;5005067;28;1353;-71
2024/01/24 01:30:24;;;;;;;;;;;8.40;99.90;;;-146.41;100.00;57768.22;5005510;28;1284;-71
2024/01/24 01:32:51;;;;;;;;;;;8.40;99.90;;;-146.41;100.00;57768.22;5004037;28;1366;-71
2024/01/24 01:35:18;;;;;;;;;;;8.40;99.90;;;-146.41;100.00;57768.22;5020799;28;1381;-72
2024/01/24 01:37:44;;;;;;;;;;;8.40;99.90;;;-146.41;100.00;57768.22;5020376;28;1595;-72
2024/01/24 01:40:11;;;;;;;;;;;8.40;99.90;;;-146.41;100.00;57768.22;5005027;28;1352;-71
2024/01/24 01:42:43;;;;;;;;;;;8.30;99.90;;;-146.41;100.00;57768.22;5003388;28;1345;-71
2024/01/24 01:45:11;;;;;;;;;;;8.30;99.90;;;-146.41;100.00;57768.22;5004934;28;1398;-71
2024/01/24 01:47:39;;;;;;;;;;;8.30;99.90;;;-146.41;100.00;57768.22;5020333;28;1494;-71
2024/01/24 01:50:12;;;;;;;;;;;8.30;99.90;;;-146.41;100.00;57768.22;5019085;28;1344;-72
2024/01/24 01:52:40;;;;;;;;;;;8.30;99.90;;;-146.41;100.00;57768.22;5003880;28;1567;-71
2024/01/24 01:55:08;;;;;;;;;;;8.30;99.90;;;-146.41;100.00;57768.22;5034351;28;1445;-71
2024/01/24 01:57:40;;;;;;;;;;;8.30;99.90;;;-146.41;100.00;57768.22;5003309;28;1392;-71
2024/01/24 02:00:08;;;;;;;;;;;8.40;99.90;;;-146.41;100.00;57768.22;5003052;28;1366;-72
2024/01/24 02:02:36;;;;;;;;;;;8.30;99.90;;;-146.41;100.00;57768.22;5033264;28;1309;-71
2024/01/24 02:05:03;;;;;;;;;;;8.30;99.90;;;-146.41;100.00;57768.22;5027143;28;1910;-71
2024/01/24 02:07:30;;;;;;;;;;;8.30;99.90;;;-146.41;100.00;57768.22;5034928;28;1445;-71
2024/01/24 02:09:57;;;;;;;;;;;8.30;99.90;;;-146.41;100.00;57768.22;5004690;28;1283;-72
2024/01/24 02:12:24;;;;;;;;;;;8.30;99.90;;;-146.41;100.00;57768.22;5002710;28;1338;-68
2024/01/24 02:14:51;;;;;;;;;;;8.30;99.90;;;-146.41;100.00;57768.22;5019148;28;1398;-69
2024/01/24 02:17:19;;;;;;;;;;;8.30;99.90;;;-146.41;100.00;57768.22;5006484;28;1583;-71
2024/01/24 02:19:46;;;;;;;;;;;8.30;99.90;;;-146.41;100.00;57768.22;5020108;28;1290;-71
2024/01/24 02:22:12;;;;;;;;;;;8.30;99.90;;;-146.41;100.00;57768.22;5005077;28;1377;-71
2024/01/24 02:24:39;;;;;;;;;;;8.30;99.90;;;-146.41;100.00;57768.22;5002680;28;1963;-72
2024/01/24 02:27:06;;;;;;;;;;;8.30;99.90;;;-146.41;100.00;57768.22;5002831;28;1295;-71
2024/01/24 02:29:33;;;;;;;;;;;8.40;99.90;;;-146.41;100.00;57768.22;5004547;28;1446;-72
2024/01/24 02:32:01;;;;;;;;;;;8.40;99.90;;;-146.41;100.00;57768.22;5004211;28;1240;-72
2024/01/24 02:34:27;;;;;;;;;;;8.40;99.90;;;-146.41;100.00;57768.22;5004586;28;1544;-72
2024/01/24 02:36:54;;;;;;;;;;;8.30;99.90;;;-146.41;100.00;57768.22;5002071;28;1220;-71
2024/01/24 02:39:21;;;;;;;;;;;8.30;99.90;;;-146.41;100.00;57768.22;5002856;28;1549;-71
2024/01/24 02:41:48;;;;;;;;;;;8.40;99.90;;;-146.41;100.00;57768.22;5001376;28;1244;-71
2024/01/24 02:44:15;;;;;;;;;;;8.40;99.90;;;-146.41;100.00;57768.22;5019806;28;1993;-72
2024/01/24 02:46:42;;;;;;;;;;;8.30;99.90;;;-146.41;100.00;57768.22;5003822;28;1259;-72
2024/01/24 02:49:09;;;;;;;;;;;8.40;99.90;;;-146.41;100.00;57768.22;5019848;28;1371;-71
2024/01/24 02:51:36;;;;;;;;;;;8.40;99.90;;;-146.41;100.00;57768.22;5003689;28;1430;-71
2024/01/24 02:54:04;;;;;;;;;;;8.40;99.90;;;-146.41;100.00;57768.22;5004599;28;1426;-71
2024/01/24 02:56:33;;;;;;;;;;;8.40;99.90;;;-146.41;100.00;57768.22;5004380;28;1282;-72
2024/01/24 02:59:00;;;;;;;;;;;8.40;99.90;;;-146.41;100.00;57768.22;5005114;28;1234;-69
2024/01/24 03:01:27;;;;;;;;;;;8.40;99.90;;;-146.41;100.00;57768.22;5019053;28;1367;-71
2024/01/24 03:03:54;;;;;;;;;;;8.40;99.90;;;-146.41;100.00;57768.22;5003875;28;1990;-70
2024/01/24 03:06:21;;;;;;;;;;;8.50;99.90;;;-146.41;100.00;57768.22;5004900;28;1405;-71
2024/01/24 03:08:48;;;;;;;;;;;8.40;99.90;;;-146.41;100.00;57768.22;5006365;28;1362;-71
2024/01/24 03:11:15;;;;;;;;;;;8.50;99.90;;;-146.41;100.00;57768.22;5022331;28;1318;-71
2024/01/24 03:13:42;;;;;;;;;;;8.50;99.90;;;-146.41;100.00;57768.22;5034913;28;1385;-71
2024/01/24 03:16:09;;;;;;;;;;;8.60;99.90;;;-146.41;100.00;57768.22;4991695;28;1569;-70
2024/01/24 03:18:37;;;;;;;;;;;8.50;99.90;;;-146.41;100.00;57768.22;5038627;28;1298;-71
2024/01/24 03:21:09;;;;;;;;;;;8.60;99.90;;;-146.41;100.00;57768.22;5035425;28;1266;-71
2024/01/24 03:23:38;;;;;;;;;;;8.60;99.90;;;-146.41;100.00;57768.22;5022483;28;1907;-71
2024/01/24 03:26:06;;;;;;;;;;;8.70;99.90;;;-146.41;100.00;57768.22;5035135;28;1276;-71
2024/01/24 03:28:34;;;;;;;;;;;8.70;99.90;;;-146.41;100.00;57768.22;5006993;28;1271;-72
2024/01/24 03:31:02;;;;;;;;;;;8.70;99.90;;;-146.41;100.00;57768.22;5022108;28;1270;-70
2024/01/24 03:33:29;;;;;;;;;;;8.70;99.90;;;-146.41;100.00;57768.22;5038316;28;1228;-71
2024/01/24 03:35:56;;;;;;;;;;;8.70;99.90;;;-146.41;100.00;57768.22;5008947;28;1417;-71
2024/01/24 03:38:23;;;;;;;;;;;8.80;99.90;;;-146.41;100.00;57768.22;5022869;28;1560;-71
2024/01/24 03:40:50;;;;;;;;;;;8.80;99.90;;;-146.41;100.00;57768.22;5005414;28;1247;-71
2024/01/24 03:43:17;;;;;;;;;;;8.80;99.90;;;-146.41;100.00;57768.22;5005348;28;1193;-71
2024/01/24 03:45:43;;;;;;;;;;;8.80;99.90;;;-146.41;100.00;57768.22;5008658;28;1343;-71
2024/01/24 03:48:11;;;;;;;;;;;;;;;-146.41;100.00;57768.22;5005684;28;1291;-70
2024/01/24 03:50:38;;;;;;;;;;;8.90;99.90;;;-146.41;100.00;57768.22;5022859;28;1302;-71
2024/01/24 03:53:05;;;;;;;;;;;9.00;99.90;;;-146.41;100.00;57768.22;5005609;28;1247;-71
2024/01/24 03:55:32;;;;;;;;;;;8.90;99.90;;;-146.41;100.00;57768.22;5005935;28;1330;-71
2024/01/24 03:57:59;;;;;;;;;;;9.00;99.90;;;-146.41;100.00;57768.22;5005389;28;1331;-71
2024/01/24 04:00:27;;;;;;;;;;;9.00;99.90;;;-146.41;100.00;57768.22;5005491;28;1502;-71
2024/01/24 04:02:54;;;;;;;;;;;9.10;99.90;;;-146.41;100.00;57768.22;5035859;28;1235;-71
2024/01/24 04:05:21;;;;;;;;;;;9.10;99.90;;;-146.41;100.00;57768.22;5008075;28;1967;-71
2024/01/24 04:07:48;;;;;;;;;;;9.10;99.90;;;-146.41;100.00;57768.22;5006246;28;1228;-71
2024/01/24 04:10:16;;;;;;;;;;;9.10;99.90;;;-146.41;100.00;57768.22;5006898;28;1243;-70
2024/01/24 04:12:43;;;;;;;;;;;9.20;99.90;;;-146.41;100.00;57768.22;5005993;28;1250;-71
2024/01/24 04:15:10;;;;;;;;;;;9.20;99.90;;;-146.41;100.00;57768.22;5007132;28;1381;-71
2024/01/24 04:17:37;;;;;;;;;;;9.20;99.90;;;-146.41;100.00;57768.22;5037151;28;1184;-71
2024/01/24 04:20:05;;;;;;;;;;;9.20;99.90;;;-146.41;100.00;57768.22;5005717;28;1278;-71
2024/01/24 04:22:32;;;;;;;;;;;9.20;99.90;;;-146.41;100.00;57768.22;5006732;28;1380;-71
2024/01/24 04:25:00;;;;;;;;;;;9.30;99.90;;;-146.41;100.00;57768.22;5020095;28;1934;-71
2024/01/24 04:27:27;;;;;;;;;;;9.30;99.90;;;-146.41;100.00;57768.22;5005765;28;1309;-71
2024/01/24 04:29:54;;;;;;;;;;;9.30;99.90;;;-146.41;100.00;57768.22;5035576;28;1365;-71
2024/01/24 04:32:21;;;;;;;;;;;9.30;99.90;;;-146.41;100.00;57768.22;5004801;28;1240;-71
2024/01/24 04:34:48;;;;;;;;;;;9.30;99.90;;;-146.41;100.00;57768.22;5006233;28;1423;-71
2024/01/24 04:37:15;;;;;;;;;;;9.30;99.90;;;-146.41;100.00;57768.22;5006138;28;1401;-71
2024/01/24 04:39:42;;;;;;;;;;;9.40;99.90;;;-146.41;100.00;57768.22;5005714;28;1397;-70
2024/01/24 04:42:09;;;;;;;;;;;9.40;99.90;;;-146.41;100.00;57768.22;5034186;28;1258;-71
2024/01/24 04:44:43;;;;;;;;;;;9.40;99.90;;;-146.41;100.00;57768.22;5003642;28;2005;-71
2024/01/24 04:47:13;;;;;;;;;;;9.40;99.90;;;-146.41;100.00;57768.22;5035188;28;1306;-71
2024/01/24 04:49:40;;;;;;;;;;;9.40;99.90;;;-146.41;100.00;57768.22;5004799;28;1577;-71
2024/01/24 04:52:13;;;;;;;;;;;9.50;99.90;;;-146.41;100.00;57768.22;5020220;28;1262;-71
2024/01/24 04:54:44;;;;;;;;;;;9.50;99.90;;;-146.41;100.00;57768.22;5005086;28;1389;-71
2024/01/24 04:57:11;;;;;;;;;;;9.50;99.90;;;-146.41;100.00;57768.22;5004021;28;1339;-70
2024/01/24 04:59:40;;;;;;;;;;;9.50;99.90;;;-146.41;100.00;57768.22;5006174;28;1494;-70
2024/01/24 05:02:19;;;;;;;;;;;9.50;99.90;;;-146.41;100.00;57768.22;5030968;28;1430;-71
2024/01/24 05:04:47;;;;;;;;;;;9.60;99.90;;;-146.41;100.00;57768.22;5006730;28;1898;-71
2024/01/24 05:07:15;;;;;;;;;;;9.60;99.90;;;-146.41;100.00;57768.22;5004355;28;1446;-71
2024/01/24 05:09:42;;;;;;;;;;;9.60;99.90;;;-146.41;100.00;57768.22;5034702;28;1279;-71
2024/01/24 05:12:09;;;;;;;;;;;9.60;99.90;;;-146.41;100.00;57768.22;5033655;28;1234;-71
2024/01/24 05:14:36;;;;;;;;;;;9.60;99.90;;;-146.41;100.00;57768.22;5005700;28;1422;-71
2024/01/24 05:17:03;;;;;;;;;;;9.60;99.90;;;-146.41;100.00;57768.22;5005042;28;1197;-71
2024/01/24 05:19:30;;;;;;;;;;;9.70;99.90;;;-146.41;100.00;57768.22;5019941;28;1318;-71
2024/01/24 05:21:57;;;;;;;;;;;9.70;99.90;;;-146.41;100.00;57768.22;5003599;28;1621;-71
2024/01/24 05:24:24;;;;;;;;;;;9.70;99.90;;;-146.41;100.00;57768.22;5004947;28;1997;-70
2024/01/24 05:26:51;;;;;;;;;;;9.80;99.90;;;-146.41;100.00;57768.22;5005574;28;1370;-71
2024/01/24 05:29:19;;;;;;;;;;;9.70;99.90;;;-146.41;100.00;57768.22;5005295;28;1418;-70
2024/01/24 05:31:46;;;;;;;;;;;9.80;99.90;;;-146.41;100.00;57768.22;5004532;28;1216;-71
2024/01/24 05:34:13;;;;;;;;;;;9.80;99.90;;;-146.41;100.00;57768.22;5005595;28;1410;-71
2024/01/24 05:36:40;;;;;;;;;;;9.90;99.90;;;-146.41;100.00;57768.22;5004757;28;1505;-71
2024/01/24 05:39:07;;;;;;;;;;;10.00;99.90;;;-146.41;100.00;57768.22;5005416;28;1246;-71
2024/01/24 05:41:35;;;;;;;;;;;10.00;99.90;;;-146.41;100.00;57768.22;5003908;28;1351;-71
2024/01/24 05:44:03;;;;;;;;;;;10.00;99.90;;;-146.41;100.00;57768.22;5004494;28;1910;-71
2024/01/24 05:46:30;;;;;;;;;;;10.00;99.90;;;-146.41;100.00;57768.22;5005479;28;1381;-71
2024/01/24 05:48:58;;;;;;;;;;;10.10;99.90;;;-146.41;100.00;57768.22;5019845;28;1199;-72
2024/01/24 05:51:25;;;;;;;;;;;10.10;99.90;;;-146.41;100.00;57768.22;5004953;28;1357;-71
2024/01/24 05:53:52;;;;;;;;;;;10.20;99.90;;;-146.41;100.00;57768.22;5005061;28;1567;-71
2024/01/24 05:56:19;;;;;;;;;;;10.20;99.90;;;-146.41;100.00;57768.22;5019986;28;1318;-71
2024/01/24 05:58:46;;;;;;;;;;;10.20;99.90;;;-146.41;100.00;57768.22;5034394;28;1191;-71
2024/01/24 06:01:13;;;;;;;;;;;10.20;99.90;;;-146.41;100.00;57768.22;5016999;28;1251;-71
2024/01/24 06:03:41;;;;;;;;;;;10.20;99.90;;;-146.41;100.00;57768.22;5003165;28;1351;-71
2024/01/24 06:06:08;;;;;;;;;;;10.20;99.90;;;-146.41;100.00;57768.22;5019855;28;1910;-71
2024/01/24 06:08:36;;;;;;;;;;;10.20;99.90;;;-146.41;100.00;57768.22;5003815;28;1363;-73
2024/01/24 06:11:04;;;;;;;;;;;10.10;99.90;;;-146.41;100.00;57768.22;5003141;28;1281;-70
2024/01/24 06:13:31;;;;;;;;;;;10.20;99.90;;;-146.41;100.00;57768.22;5004102;28;1224;-71
2024/01/24 06:15:58;;;;;;;;;;;10.20;99.90;;;-146.41;100.00;57768.22;5003860;28;1150;-71
2024/01/24 06:18:25;;;;;;;;;;;10.20;99.90;;;-146.41;100.00;57768.22;5003932;28;1018;-71
2024/01/24 06:20:52;;;;;;;;;;;10.30;99.90;;;-146.41;100.00;57768.22;5019927;28;1070;-71
2024/01/24 06:23:19;;;;;;;;;;;10.30;99.90;;;-146.41;100.00;57768.22;5005498;28;1292;-71
2024/01/24 06:25:45;;;;;;;;;;;10.30;99.90;;;-146.41;100.00;57768.22;5018966;28;1914;-71
2024/01/24 06:28:13;;;;;;;;;;;10.40;99.90;;;-146.41;100.00;57768.22;5005291;28;1094;-71
2024/01/24 06:30:40;;;;;;;;;;;10.40;99.90;;;-146.41;100.00;57768.22;5005596;28;1422;-71
2024/01/24 06:33:07;;;;;;;;;;;10.40;99.90;;;-146.41;100.00;57768.22;5002713;28;1097;-71
2024/01/24 06:35:34;;;;;;;;;;;10.40;99.90;;;-146.41;100.00;57768.22;5003151;28;1320;-71
2024/01/24 06:38:01;;;;;;;;;;;10.40;99.90;;;-146.41;100.00;57768.22;5005234;28;1185;-71
2024/01/24 06:40:28;;;;;;;;;;;10.50;99.90;;;-146.41;100.00;57768.22;5035402;28;1270;-71
2024/01/24 06:42:55;;;;;;;;;;;10.50;99.90;;;-146.41;100.00;57768.22;5005973;28;1153;-71
2024/01/24 06:45:22;;;;;;;;;;;10.50;99.90;;;-146.41;100.00;57768.22;5023372;28;1902;-71
2024/01/24 06:47:49;;;;;;;;;;;10.50;99.90;;;-146.41;100.00;57768.22;5007236;28;1320;-71
2024/01/24 06:50:17;;;;;;;;;;;10.60;99.90;;;-146.41;100.00;57768.22;5040558;28;1143;-71
2024/01/24 06:52:45;;;;;;;;;;;10.60;99.90;;;-146.41;100.00;57768.22;5006842;28;1069;-72
2024/01/24 06:55:13;;;;;;;;;;;10.60;99.90;;;-146.41;100.00;57768.22;5007757;28;1352;-71
2024/01/24 06:57:40;;;;;;;;;;;10.70;99.90;;;-146.41;100.00;57768.22;5022727;28;1157;-71
2024/01/24 07:00:08;;;;;;;;;;;10.70;99.90;;;-146.41;100.00;57768.22;5008683;28;1163;-71
2024/01/24 07:02:36;;;;;;;;;;;10.70;99.90;;;-146.41;100.00;57768.22;5007253;28;1050;-71
2024/01/24 07:05:03;;;;;;;;;;;10.80;99.90;;;-146.41;100.00;57768.22;5008241;28;1906;-71
2024/01/24 07:07:32;;;;;;;;;;;10.80;99.90;;;-146.41;100.00;57768.22;5006874;28;1454;-71
2024/01/24 07:09:58;;;;;;;;;;;10.80;99.90;;;-146.41;100.00;57768.22;5023329;28;1086;-71
2024/01/24 07:12:25;;;;;;;;;;;10.80;99.90;;;-146.41;100.00;57768.22;5008198;28;1040;-72
2024/01/24 07:14:52;;;;;;;;;;;10.80;99.90;;;-146.41;100.00;57768.22;5038792;28;1304;-71
2024/01/24 07:17:19;;;;;;;;;;;10.80;99.90;;;-146.41;100.00;57768.22;5008093;28;1091;-71
2024/01/24 07:19:47;;;;;;;;;;;10.90;99.90;;;-146.41;100.00;57768.22;5006083;28;1151;-71
2024/01/24 07:22:15;;;;;;;;;;;10.90;99.90;;;-146.41;100.00;57768.22;5006855;28;1204;-71
2024/01/24 07:24:46;;;;;;;;;;;11.00;99.90;;;-146.41;100.00;57768.22;5007207;28;1914;-70
2024/01/24 07:27:14;;;;;;;;;;;11.10;99.90;;;-146.41;100.00;57768.22;5023515;28;1134;-71
2024/01/24 07:29:40;;;;;;;;;;;11.00;99.90;;;-146.41;100.00;57768.22;5038748;28;1129;-71
2024/01/24 07:32:07;;;;;;;;;;;11.00;99.90;;;-146.41;100.00;57768.22;5007041;28;1046;-71
2024/01/24 07:34:38;;;;;;;;;;;11.10;99.90;;;-146.41;100.00;57768.22;5006694;28;1260;-71
2024/01/24 07:37:06;;;;;;;;;;;11.10;99.90;;;-146.41;100.00;57768.22;5021391;28;1361;-71
2024/01/24 07:39:33;;;;;;;;;;;11.10;99.90;;;-146.41;100.00;57768.22;4990180;28;1447;-69
2024/01/24 07:42:00;;;;;;;;;;;11.10;99.90;;;-146.41;100.00;57768.22;5002426;28;1288;-71
2024/01/24 07:44:27;;;;;;;;;;;11.10;99.90;;;-146.41;100.00;57768.22;5009712;28;2017;-71
2024/01/24 07:46:56;;;;;;;;;;;11.10;99.90;;;-146.41;100.00;57768.22;5038424;28;1021;-71
2024/01/24 07:49:23;;;;;;;;;;;11.20;99.90;;;-146.41;100.00;57768.22;5022297;28;954;-71
2024/01/24 07:51:49;;;;;;;;;;;11.20;99.90;;;-146.41;100.00;57768.22;5006024;28;1221;-70
2024/01/24 07:54:20;;;;;;;;;;;11.20;99.90;;;-146.41;100.00;57768.22;5006006;28;1286;-69
2024/01/24 07:56:47;;;;;;;;;;;11.20;99.90;;;-146.41;100.00;57768.22;5005645;28;1068;-71
2024/01/24 07:59:16;;;;;;;;;;;11.20;99.90;;;-146.41;100.00;57768.22;5020595;28;1180;-69
2024/01/24 08:01:47;;;;;;;;;;;11.30;99.90;;;-146.41;100.00;57768.22;5003853;28;1206;-70
2024/01/24 08:04:15;;;;;;;;;;;11.30;99.90;;;-146.41;100.00;57768.22;5004807;28;1415;-71
2024/01/24 08:06:45;;;;;;;;;;;11.20;99.90;;;-146.41;100.00;57768.22;5004266;28;1910;-71
2024/01/24 08:09:13;;;;;;;;;;;11.40;99.90;;;-146.41;100.00;57768.22;5021119;28;1224;-72
2024/01/24 08:11:41;;;;;;;;;;;11.40;99.90;;;-146.41;100.00;57768.22;5005592;28;1280;-70
2024/01/24 08:14:08;;;;;;;;;;;11.40;99.90;;;-146.41;100.00;57768.22;5006477;28;1430;-71
2024/01/24 08:16:35;;;;;;;;;;;11.40;99.90;;;-146.41;100.00;57768.22;5036975;28;1151;-71
2024/01/24 08:19:03;;;;;;;;;;;11.40;99.90;;;-146.41;100.00;57768.22;5006219;28;1065;-72
2024/01/24 08:21:30;;;;;;;;;;;11.30;99.90;;;-146.41;100.00;57768.22;5003384;28;1337;-71
2024/01/24 08:23:57;;;;;;;;;;;11.30;99.90;;;-146.41;100.00;57768.22;5022343;28;1379;-72
2024/01/24 08:26:24;;;;;;;;;;;11.30;99.90;;;-146.41;100.00;57768.22;5005469;28;1918;-72
2024/01/24 08:28:52;;;;;;;;;;;11.50;99.90;;;-146.41;100.00;57768.22;5020526;28;1047;-71
2024/01/24 08:31:19;;;;;;;;;;;11.60;99.90;;;-146.41;100.00;57768.22;5003752;28;1217;-71
2024/01/24 08:33:46;;;;;;;;;;;11.60;99.90;;;-146.41;100.00;57768.22;5006249;28;1308;-71
2024/01/24 08:36:18;;;;;;;;;;;11.60;99.90;;;-146.41;100.00;57768.22;5019062;28;1213;-71
2024/01/24 08:38:46;;;;;;;;;;;11.60;99.90;;;-146.41;100.00;57768.22;5006110;28;1070;-70
2024/01/24 08:41:12;;;;;;;;;;;11.60;99.90;;;-146.41;100.00;57768.22;5004566;28;1213;-69
2024/01/24 08:43:40;;;;;;;;;;;11.70;99.90;;;-146.41;100.00;57768.22;5035724;28;1352;-70
2024/01/24 08:46:06;;;;;;;;;;;11.60;99.90;;;-146.41;100.00;57768.22;5005375;28;1989;-71
2024/01/24 08:48:33;;;;;;;;;;;11.60;99.90;;;-146.41;100.00;57768.22;5005170;28;1142;-71
2024/01/24 08:51:00;;;;;;;;;;;11.60;99.90;;;-146.41;100.00;57768.22;5019155;28;1014;-71
2024/01/24 08:53:27;;;;;;;;;;;11.60;99.90;;;-146.41;100.00;57768.22;5020096;28;1275;-71
2024/01/24 08:55:54;;;;;;;;;;;11.70;99.90;;;-146.41;100.00;57768.22;5005229;28;1407;-71
2024/01/24 08:58:21;;;;;;;;;;;11.70;99.90;;;-146.41;100.00;57768.22;5004434;28;1152;-71
2024/01/24 09:00:50;;;;;;;;;;;11.60;99.90;;;-146.41;100.00;57768.22;5019777;28;1280;-72
2024/01/24 09:03:18;;;;;;;;;;;11.60;99.90;;;-146.41;100.00;57768.22;5020803;28;1137;-71
2024/01/24 09:05:46;;;;;;;;;;;11.60;99.90;;;-146.41;100.00;57768.22;5002145;28;1898;-68
2024/01/24 09:08:13;;;;;;;;;;;11.70;99.90;;;-146.41;100.00;57768.22;5018938;28;1173;-71
2024/01/24 09:10:40;;;;;;;;;;;11.70;99.90;;;-146.41;100.00;57768.22;5005183;28;1098;-71
2024/01/24 09:13:08;;;;;;;;;;;11.60;99.90;;;-146.41;100.00;57768.22;5020118;28;1139;-71
2024/01/24 09:15:34;;;;;;;;;;;11.70;99.90;;;-146.41;100.00;57768.22;5002903;28;1316;-72
2024/01/24 09:18:02;;;;;;;;;;;11.80;99.90;;;-146.41;100.00;57768.22;5018155;28;1225;-71
2024/01/24 09:20:29;;;;;;;;;;;11.80;99.90;;;-146.41;100.00;57768.22;5019442;28;1105;-71
2024/01/24 09:22:56;;;;;;;;;;;11.80;99.90;;;-146.41;100.00;57768.22;5004649;28;1050;-71
2024/01/24 09:25:23;;;;;;;;;;;11.70;99.90;;;-146.41;100.00;57768.22;5004036;28;2007;-71
2024/01/24 09:27:50;;;;;;;;;;;11.60;99.90;;;-146.41;100.00;57768.22;5018797;28;1124;-71
2024/01/24 09:30:18;;;;;;;;;;;11.50;99.90;;;-146.41;100.00;57768.22;5004704;28;1146;-72
2024/01/24 09:32:45;;;;;;;;;;;11.40;99.90;;;-146.41;100.00;57768.22;5019144;28;1387;-70
2024/01/24 09:35:12;;;;;;;;;;;11.40;99.90;;;-146.41;100.00;57768.22;5001844;28;1329;-69
2024/01/24 09:37:39;;;;;;;;;;;11.30;99.90;;;-146.41;100.00;57768.22;5018018;28;1205;-69
2024/01/24 09:40:07;;;;;;;;;;;11.20;99.90;;;-146.41;100.00;57768.22;5003956;28;1537;-69
2024/01/24 09:42:41;;;;;;;;;;;11.20;99.90;;;-146.41;100.00;57768.22;4999715;28;1594;-70
2024/01/24 09:45:08;;;;;;;;;;;11.30;99.90;;;-146.41;100.00;57768.22;5032352;28;1922;-70
2024/01/24 09:47:37;;;;;;;;;;;11.40;99.90;;;-146.41;100.00;57768.22;5003914;28;1070;-69
2024/01/24 09:50:05;;;;;;;;;;;11.40;99.90;;;-146.41;100.00;57768.22;5003134;28;1093;-68
2024/01/24 09:52:33;;;;;;;;;;;11.40;99.90;;;-146.41;100.00;57768.22;5002893;28;1249;-69
2024/01/24 09:55:04;;;;;;;;;;;11.40;99.90;;;-146.41;100.00;57768.22;5018574;28;1305;-70
2024/01/24 09:57:32;;;;;;;;;;;11.60;99.90;;;-146.41;100.00;57768.22;5035102;28;1057;-69
2024/01/24 09:59:59;;;;;;;;;;;11.50;99.90;;;-146.41;100.00;57768.22;5000927;28;1130;-69
2024/01/24 10:02:27;;;;;;;;;;;11.60;99.90;;;-146.41;100.00;57768.22;5019147;28;1233;-69
2024/01/24 10:04:54;;;;;;;;;;;11.60;99.90;;;-146.41;100.00;57768.22;5002796;28;1356;-69
2024/01/24 10:07:21;;;;;;;;;;;11.60;99.90;;;-146.41;100.00;57768.22;4999752;28;1981;-69
2024/01/24 10:09:57;;;;;;;;;;;11.70;99.90;;;-146.41;100.00;57768.22;5001702;28;1627;-69
2024/01/24 10:12:26;;;;;;;;;;;11.70;99.90;;;-146.41;100.00;57768.22;5016444;28;1468;-69
2024/01/24 10:14:53;;;;;;;;;;;11.80;99.90;;;-146.41;100.00;57768.22;4995728;28;1603;-69
2024/01/24 10:17:20;;;;;;;;;;;11.70;99.90;;;-146.41;100.00;57768.22;5003417;28;1552;-69
2024/01/24 10:19:47;;;;;;;;;;;11.70;99.90;;;-146.41;100.00;57768.22;5020308;28;1365;-69
2024/01/24 10:22:14;;;;;;;;;;;11.80;99.90;;;-146.41;100.00;57768.22;5020801;28;1256;-69
2024/01/24 10:24:41;;;;;;;;;;;11.80;99.90;;;-146.41;100.00;57768.22;5004513;28;1363;-69
2024/01/24 10:27:09;;;;;;;;;;;11.90;99.90;;;-146.41;100.00;57768.22;5004415;28;1984;-69
2024/01/24 10:29:38;;;;;;;;;;;11.90;99.90;;;-146.41;100.00;57768.22;5006618;28;1168;-69
2024/01/24 10:32:11;;;;;;;;;;;12.00;99.90;;;-146.41;100.00;57768.22;5007559;28;1147;-69
2024/01/24 10:34:38;;;;;;;;;;;12.00;99.90;;;-146.41;100.00;57768.22;5022257;28;1348;-69
2024/01/24 10:37:06;;;;;;;;;;;12.00;99.90;;;-146.41;100.00;57768.22;5023268;28;1338;-70
2024/01/24 10:39:34;;;;;;;;;;;12.00;99.90;;;-146.41;100.00;57768.22;5039136;28;1417;-69
2024/01/24 10:42:08;;;;;;;;;;;12.00;99.90;;;-146.41;100.00;57768.22;5034524;28;1454;-68
2024/01/24 10:44:43;;;;;;;;;;;12.00;99.90;;;-146.41;100.00;57768.22;5021414;28;1431;-70
2024/01/24 10:47:10;;;;;;;;;;;12.10;99.90;;;-146.41;100.00;57768.22;5006553;28;2005;-70
2024/01/24 10:49:37;;;;;;;;;;;12.10;99.90;;;-146.41;100.00;57768.22;5038773;28;1358;-69
2024/01/24 10:52:06;;;;;;;;;;;12.00;99.90;;;-146.41;100.00;57768.22;5037246;28;1461;-70
2024/01/24 10:54:34;;;;;;;;;;;12.10;99.90;;;-146.41;100.00;57768.22;5036479;28;1312;-69
2024/01/24 10:57:04;;;;;;;;;;;12.20;99.90;;;-146.41;100.00;57768.22;5038762;28;1385;-70
2024/01/24 10:59:31;;;;;;;;;;;12.20;99.90;;;-146.41;100.00;57768.22;5035700;28;1351;-69
2024/01/24 11:01:59;;;;;;;;;;;12.30;99.90;;;-146.41;100.00;57768.22;5034150;28;1230;-69
2024/01/24 11:04:27;;;;;;;;;;;12.20;99.90;;;-146.41;100.00;57768.22;5024442;28;1332;-70
2024/01/24 11:07:02;;;;;;;;;;;12.20;99.90;;;-146.41;100.00;57768.22;5038304;28;1907;-69
2024/01/24 11:10:07;;;;;;;;;;;12.20;99.90;;;-146.41;100.00;57768.22;5037836;28;1466;-69